Time;durP1;ratioP1;P1;durP2;ratioP2;P2;SDS_P1;SDS_P2;PMS_P1;PMS_P2;Temp;Humidity;BMP_temperature;BMP_pressure;BME280_temperature;BME280_humidity;BME280_pressure;Samples;Min_cycle;Max_cycle;Signal;HPM_P1;HPM_P2
2023/12/13 00:00:16;;;;;;;14.95;2.67;;;;;;;7.70;100.00;98847.78;5003441;28;20031;-73
2023/12/13 00:02:42;;;;;;;15.90;2.80;;;;;;;7.59;100.00;98847.22;5036244;28;20152;-73
2023/12/13 00:05:07;;;;;;;15.48;2.80;;;;;;;7.63;100.00;98844.63;5037348;28;20033;-73
2023/12/13 00:07:33;;;;;;;14.98;2.47;;;;;;;7.60;100.00;98852.44;5037206;28;20030;-73
2023/12/13 00:09:58;;;;;;;10.02;2.55;;;;;;;7.60;100.00;98840.56;5036195;28;20033;-73
2023/12/13 00:12:24;;;;;;;10.05;2.38;;;;;;;7.61;100.00;98831.16;5035844;28;20029;-73
2023/12/13 00:14:49;;;;;;;14.85;2.40;;;;;;;7.58;100.00;98829.03;5026306;28;20030;-73
2023/12/13 00:17:15;;;;;;;11.05;2.40;;;;;;;7.58;100.00;98826.28;5007692;28;20541;-73
2023/12/13 00:19:40;;;;;;;9.52;2.20;;;;;;;7.57;100.00;98827.38;5019346;28;20071;-73
2023/12/13 00:22:06;;;;;;;15.50;2.72;;;;;;;7.57;100.00;98819.09;5037444;28;20101;-73
2023/12/13 00:24:31;;;;;;;8.82;2.42;;;;;;;7.58;100.00;98813.25;5036963;28;20037;-73
2023/12/13 00:26:57;;;;;;;10.57;2.13;;;;;;;7.61;100.00;98818.16;5036811;28;20450;-73
2023/12/13 00:29:22;;;;;;;13.75;2.35;;;;;;;7.64;100.00;98815.91;5019275;28;20064;-73
2023/12/13 00:31:48;;;;;;;12.75;2.22;;;;;;;7.62;100.00;98810.69;5036889;28;20025;-73
2023/12/13 00:34:14;;;;;;;11.23;2.28;;;;;;;7.62;100.00;98805.16;5036783;28;20068;-73
2023/12/13 00:36:39;;;;;;;12.23;2.17;;;;;;;7.62;100.00;98796.88;5036982;28;20026;-73
2023/12/13 00:39:05;;;;;;;13.57;2.30;;;;;;;7.64;100.00;98793.78;5018965;28;20056;-73
2023/12/13 00:41:31;;;;;;;9.40;1.77;;;;;;;7.64;100.00;98785.50;5036782;28;20045;-73
2023/12/13 00:43:56;;;;;;;15.68;2.45;;;;;;;7.66;100.00;98786.81;5035299;28;20108;-73
2023/12/13 00:46:22;;;;;;;11.77;2.17;;;;;;;7.67;100.00;98782.91;5017252;28;20033;-73
2023/12/13 00:48:49;;;;;;;12.43;2.13;;;;;;;7.72;100.00;98780.03;5035149;28;20032;-73
2023/12/13 00:51:17;;;;;;;11.80;2.30;;;;;;;7.74;100.00;98777.72;5043336;28;20094;-73
2023/12/13 00:53:42;;;;;;;7.85;1.40;;;;;;;7.69;100.00;98780.66;5015034;28;20029;-73
2023/12/13 00:56:08;;;;;;;7.43;1.65;;;;;;;7.68;100.00;98781.78;5034427;28;20029;-73
2023/12/13 00:58:34;;;;;;;6.72;1.60;;;;;;;7.68;100.00;98773.47;5036432;28;20037;-73
2023/12/13 01:01:00;;;;;;;10.02;1.85;;;;;;;7.74;100.00;98768.63;5036486;28;20033;-73
2023/12/13 01:03:26;;;;;;;8.70;1.90;;;;;;;7.71;100.00;98775.59;5036390;28;20029;-73
2023/12/13 01:05:51;;;;;;;8.15;1.58;;;;;;;7.70;100.00;98779.50;5036198;28;20021;-73
2023/12/13 01:08:17;;;;;;;8.75;1.90;;;;;;;7.71;100.00;98780.31;5036300;28;20037;-73
2023/12/13 01:10:43;;;;;;;7.22;1.83;;;;;;;7.66;100.00;98778.53;5036095;28;20033;-73
2023/12/13 01:13:08;;;;;;;8.85;1.60;;;;;;;7.65;100.00;98774.13;5015991;28;20509;-73
2023/12/13 01:15:34;;;;;;;12.48;2.38;;;;;;;7.62;100.00;98772.00;5018625;28;20044;-73
2023/12/13 01:17:59;;;;;;;6.15;1.42;;;;;;;7.60;100.00;98772.31;5018438;28;20058;-73
2023/12/13 01:20:25;;;;;;;8.73;1.88;;;;;;;7.57;100.00;98775.69;5034928;28;20044;-73
2023/12/13 01:22:50;;;;;;;8.27;1.45;;;;;;;7.53;100.00;98773.91;5034994;28;20080;-73
2023/12/13 01:25:16;;;;;;;7.10;1.55;;;;;;;7.50;100.00;98780.06;5035732;28;20060;-73
2023/12/13 01:27:42;;;;;;;12.85;1.55;;;;;;;7.44;100.00;98781.31;5035989;28;20029;-73
2023/12/13 01:30:08;;;;;;;6.00;1.50;;;;;;;7.41;100.00;98768.13;5036185;28;20022;-73
2023/12/13 01:32:34;;;;;;;7.82;1.45;;;;;;;7.34;100.00;98779.63;5034841;28;20064;-73
2023/12/13 01:34:59;;;;;;;9.32;1.50;;;;;;;7.30;100.00;98776.69;5036103;28;20069;-73
2023/12/13 01:37:26;;;;;;;6.63;1.65;;;;;;;7.32;100.00;98773.59;5034825;28;20033;-73
2023/12/13 01:39:56;;;;;;;5.93;1.10;;;;;;;7.23;100.00;98778.25;5036010;28;20034;-73
2023/12/13 01:42:21;;;;;;;8.05;1.35;;;;;;;7.18;100.00;98772.84;5035727;28;20087;-73
2023/12/13 01:44:47;;;;;;;7.90;1.30;;;;;;;7.15;100.00;98768.78;5033109;28;20022;-73
2023/12/13 01:47:12;;;;;;;6.50;1.30;;;;;;;7.10;100.00;98777.19;5036044;28;20087;-73
2023/12/13 01:49:38;;;;;;;3.08;1.10;;;;;;;7.05;100.00;98780.06;5034276;28;20030;-73
2023/12/13 01:52:04;;;;;;;5.88;1.40;;;;;;;6.98;100.00;98782.44;5008320;28;20037;-73
2023/12/13 01:54:29;;;;;;;8.55;1.00;;;;;;;6.93;100.00;98786.94;5032185;28;20104;-73
2023/12/13 01:56:55;;;;;;;6.63;1.35;;;;;;;6.91;100.00;98789.22;5028034;28;20029;-73
2023/12/13 01:59:20;;;;;;;5.57;1.40;;;;;;;6.87;100.00;98785.44;5035902;28;20040;-73
2023/12/13 02:01:45;;;;;;;6.18;1.38;;;;;;;6.81;100.00;98788.63;5018330;28;20037;-73
2023/12/13 02:04:17;;;;;;;7.28;1.30;;;;;;;6.78;100.00;98797.53;5034537;28;20044;-72
2023/12/13 02:06:42;;;;;;;7.75;1.35;;;;;;;6.72;100.00;98799.59;5018462;28;20036;-73
2023/12/13 02:09:08;;;;;;;5.53;1.27;;;;;;;6.69;100.00;98800.22;5070812;28;20033;-73
2023/12/13 02:11:34;;;;;;;5.85;1.63;;;;;;;6.66;100.00;98801.66;5021653;28;20037;-73
2023/12/13 02:14:00;;;;;;;9.60;1.48;;;;;;;6.63;100.00;98798.69;5037159;28;20025;-73
2023/12/13 02:16:26;;;;;;;4.45;1.10;;;;;;;6.56;100.00;98796.34;5017414;28;20486;-73
2023/12/13 02:18:52;;;;;;;4.28;1.13;;;;;;;6.55;100.00;98808.53;5037925;28;20057;-72
2023/12/13 02:21:17;;;;;;;5.18;1.33;;;;;;;6.56;100.00;98812.09;5036930;28;20029;-72
2023/12/13 02:23:43;;;;;;;5.43;1.70;;;;;;;6.48;100.00;98808.13;5039234;28;20044;-73
2023/12/13 02:26:09;;;;;;;5.43;1.17;;;;;;;6.45;100.00;98806.78;5026780;28;20030;-73
2023/12/13 02:28:34;;;;;;;7.35;1.27;;;;;;;6.44;100.00;98804.34;5032011;28;20029;-73
2023/12/13 02:31:00;;;;;;;8.80;1.40;;;;;;;6.45;100.00;98806.78;5039313;28;20040;-73
2023/12/13 02:33:26;;;;;;;9.38;1.50;;;;;;;6.42;100.00;98804.66;5031485;28;20113;-73
2023/12/13 02:35:53;;;;;;;7.28;1.27;;;;;;;6.44;100.00;98807.09;5021917;28;20505;-73
2023/12/13 02:38:18;;;;;;;5.43;1.20;;;;;;;6.45;100.00;98811.50;5012068;28;20969;-73
2023/12/13 02:40:44;;;;;;;10.35;1.80;;;;;;;6.44;100.00;98810.69;5026423;28;20033;-73
2023/12/13 02:43:09;;;;;;;6.10;1.70;;;;;;;6.43;100.00;98811.78;4983710;28;20026;-73
2023/12/13 02:45:35;;;;;;;7.47;1.17;;;;;;;6.45;100.00;98806.78;5010878;28;20087;-73
2023/12/13 02:48:00;;;;;;;7.47;1.35;;;;;;;6.45;100.00;98806.78;5012785;28;20030;-73
2023/12/13 02:50:25;;;;;;;3.92;1.27;;;;;;;6.48;100.00;98806.16;5024616;28;20029;-73
2023/12/13 02:52:51;;;;;;;6.18;1.23;;;;;;;6.51;100.00;98796.47;5026379;28;20072;-73
2023/12/13 02:55:17;;;;;;;9.43;1.30;;;;;;;6.53;100.00;98801.69;5024723;28;20482;-73
2023/12/13 02:57:42;;;;;;;10.52;1.30;;;;;;;6.57;100.00;98795.22;5032894;28;20040;-73
2023/12/13 03:00:08;;;;;;;5.53;1.23;;;;;;;6.57;100.00;98786.94;5004771;28;20036;-73
2023/12/13 03:02:34;;;;;;;7.40;1.23;;;;;;;6.62;100.00;98788.78;5038594;28;20107;-73
2023/12/13 03:05:01;;;;;;;9.88;1.10;;;;;;;6.61;100.00;98778.88;5020831;28;20029;-72
2023/12/13 03:07:27;;;;;;;5.32;1.25;;;;;;;6.54;100.00;98781.25;5019540;28;20026;-73
2023/12/13 03:09:52;;;;;;;7.72;1.38;;;;;;;6.55;100.00;98782.88;5037206;28;20448;-73
2023/12/13 03:12:18;;;;;;;8.02;1.30;;;;;;;6.57;100.00;98784.19;5038462;28;20104;-73
2023/12/13 03:14:43;;;;;;;6.70;1.23;;;;;;;6.61;100.00;98787.97;5013541;28;20060;-73
2023/12/13 03:17:09;;;;;;;6.68;1.40;;;;;;;6.56;100.00;98790.03;5028691;28;20026;-73
2023/12/13 03:19:34;;;;;;;4.63;1.15;;;;;;;6.59;100.00;98786.66;5026799;28;20029;-73
2023/12/13 03:21:59;;;;;;;8.43;1.48;;;;;;;6.55;100.00;98780.13;5011258;28;20034;-73
2023/12/13 03:24:25;;;;;;;4.65;0.98;;;;;;;6.56;100.00;98788.09;5015435;28;20038;-73
2023/12/13 03:26:50;;;;;;;8.60;1.35;;;;;;;6.55;100.00;98774.63;5030147;28;20040;-73
2023/12/13 03:29:17;;;;;;;7.50;1.50;;;;;;;6.54;100.00;98781.25;5030148;28;20029;-73
2023/12/13 03:31:43;;;;;;;8.95;0.95;;;;;;;6.54;100.00;98773.78;4984541;28;20029;-73
2023/12/13 03:34:08;;;;;;;4.47;1.15;;;;;;;6.56;100.00;98779.00;5021484;28;20107;-73
2023/12/13 03:36:34;;;;;;;3.45;1.23;;;;;;;6.56;100.00;98785.31;5029586;28;20030;-73
2023/12/13 03:38:59;;;;;;;5.40;0.90;;;;;;;6.55;100.00;98780.13;5033680;28;20095;-73
2023/12/13 03:41:25;;;;;;;6.32;1.33;;;;;;;6.60;100.00;98780.00;5032959;28;20033;-73
2023/12/13 03:43:50;;;;;;;6.25;1.38;;;;;;;6.61;100.00;98784.41;5032199;28;20040;-73
2023/12/13 03:46:16;;;;;;;6.03;1.17;;;;;;;6.62;100.00;98784.06;5030755;28;20033;-73
2023/12/13 03:48:42;;;;;;;5.72;1.50;;;;;;;6.65;100.00;98785.41;5030651;28;20033;-73
2023/12/13 03:51:07;;;;;;;9.73;1.40;;;;;;;6.68;100.00;98787.53;5043433;28;20041;-73
2023/12/13 03:53:33;;;;;;;5.90;1.40;;;;;;;6.67;100.00;98783.16;5036522;28;20038;-73
2023/12/13 03:56:08;;;;;;;3.72;1.02;;;;;;;6.76;100.00;98778.53;5029050;28;20037;-73
2023/12/13 03:58:34;;;;;;;4.60;1.33;;;;;;;6.72;100.00;98789.38;5003762;28;20025;-73
2023/12/13 04:00:59;;;;;;;5.35;1.20;;;;;;;6.80;100.00;98784.22;5036235;28;20083;-73
2023/12/13 04:03:29;;;;;;;4.32;1.30;;;;;;;6.81;100.00;98794.97;5036281;28;20029;-73
2023/12/13 04:05:55;;;;;;;5.45;1.30;;;;;;;6.80;100.00;98785.06;5037484;28;20042;-73
2023/12/13 04:08:21;;;;;;;10.75;1.15;;;;;;;6.80;100.00;98789.75;5036211;28;20030;-73
2023/12/13 04:10:46;;;;;;;6.00;1.60;;;;;;;6.79;100.00;98794.44;5037134;28;20029;-73
2023/12/13 04:13:12;;;;;;;6.53;1.23;;;;;;;6.82;100.00;98790.25;5034723;28;20037;-73
2023/12/13 04:15:38;;;;;;;6.75;1.13;;;;;;;6.77;100.00;98802.25;5037263;28;20026;-73
2023/12/13 04:18:04;;;;;;;4.72;0.98;;;;;;;6.77;100.00;98801.41;5036928;28;20064;-73
2023/12/13 04:20:30;;;;;;;5.53;1.35;;;;;;;6.77;100.00;98802.25;5019501;28;20033;-73
2023/12/13 04:22:56;;;;;;;3.42;1.00;;;;;;;6.72;100.00;98803.16;5037019;28;20109;-73
2023/12/13 04:25:21;;;;;;;7.40;1.15;;;;;;;6.71;100.00;98803.47;5035635;28;20030;-73
2023/12/13 04:27:48;;;;;;;4.97;1.40;;;;;;;6.75;100.00;98800.94;5019530;28;20053;-73
2023/12/13 04:30:14;;;;;;;8.82;1.70;;;;;;;6.67;100.00;98805.22;5036695;28;20030;-73
2023/12/13 04:32:40;;;;;;;5.93;1.55;;;;;;;6.63;100.00;98802.28;5036493;28;20057;-73
2023/12/13 04:35:06;;;;;;;4.68;1.15;;;;;;;6.58;100.00;98809.84;5035738;28;20033;-73
2023/12/13 04:37:32;;;;;;;4.65;1.23;;;;;;;6.56;100.00;98801.06;5016615;28;20470;-72
2023/12/13 04:39:58;;;;;;;7.32;1.58;;;;;;;6.52;100.00;98816.56;5035493;28;20025;-73
2023/12/13 04:42:24;;;;;;;2.85;1.08;;;;;;;6.47;100.00;98810.06;4999900;28;20151;-73
2023/12/13 04:44:49;;;;;;;6.97;1.30;;;;;;;6.48;100.00;98811.69;5011682;28;20033;-73
2023/12/13 04:47:15;;;;;;;8.27;1.58;;;;;;;6.41;100.00;98822.31;5030663;28;20041;-73
2023/12/13 04:49:41;;;;;;;8.30;1.55;;;;;;;6.38;100.00;98822.09;5026441;28;20025;-73
2023/12/13 04:52:06;;;;;;;6.63;1.15;;;;;;;6.35;100.00;98823.56;5031752;28;20037;-73
2023/12/13 04:54:32;;;;;;;6.53;1.27;;;;;;;6.33;100.00;98814.78;5028173;28;20045;-73
2023/12/13 04:56:57;;;;;;;6.18;0.98;;;;;;;6.27;100.00;98821.53;5011746;28;20494;-73
2023/12/13 04:59:23;;;;;;;10.15;1.20;;;;;;;6.20;100.00;98815.59;4991442;28;20091;-73
2023/12/13 05:01:48;;;;;;;8.27;1.30;;;;;;;6.17;100.00;98816.19;4999042;28;20157;-73
2023/12/13 05:04:14;;;;;;;7.70;1.73;;;;;;;6.17;100.00;98825.28;5027277;28;20041;-72
2023/12/13 05:06:40;;;;;;;6.38;1.42;;;;;;;6.13;100.00;98815.16;5030095;28;20037;-73
2023/12/13 05:09:07;;;;;;;5.25;1.30;;;;;;;6.12;100.00;98825.38;5022586;28;20093;-73
2023/12/13 05:11:32;;;;;;;4.30;1.08;;;;;;;6.10;100.00;98819.38;5031928;28;20039;-73
2023/12/13 05:13:58;;;;;;;4.80;1.13;;;;;;;6.04;100.00;98817.81;5028611;28;20034;-73
2023/12/13 05:16:23;;;;;;;5.25;1.33;;;;;;;6.01;100.00;98819.25;5030031;28;20060;-73
2023/12/13 05:18:49;;;;;;;6.28;1.33;;;;;;;5.97;100.00;98818.25;5033044;28;20061;-73
2023/12/13 05:21:14;;;;;;;4.85;1.10;;;;;;;5.95;100.00;98823.22;5024400;28;20041;-73
2023/12/13 05:23:40;;;;;;;3.95;1.08;;;;;;;5.94;100.00;98834.56;5026130;28;20030;-73
2023/12/13 05:26:05;;;;;;;8.75;2.25;;;;;;;5.95;100.00;98825.97;5021239;28;20394;-73
2023/12/13 05:28:31;;;;;;;5.32;1.55;;;;;;;5.92;100.00;98834.81;5026007;28;20034;-72
2023/12/13 05:30:56;;;;;;;8.15;1.08;;;;;;;5.94;100.00;98835.38;5009177;28;20029;-73
2023/12/13 05:33:22;;;;;;;6.57;1.27;;;;;;;5.94;100.00;98840.88;5029858;28;20029;-73
2023/12/13 05:35:48;;;;;;;3.80;1.20;;;;;;;5.95;100.00;98841.69;5008388;28;20044;-73
2023/12/13 05:38:14;;;;;;;7.25;1.40;;;;;;;5.96;100.00;98838.66;5055803;28;20038;-73
2023/12/13 05:40:39;;;;;;;5.22;1.20;;;;;;;5.98;100.00;98838.34;5006936;28;20539;-72
2023/12/13 05:43:05;;;;;;;7.55;1.67;;;;;;;5.98;100.00;98849.34;5000280;28;20494;-73
2023/12/13 05:45:31;;;;;;;4.90;1.25;;;;;;;5.95;100.00;98841.69;5064032;28;20029;-73
2023/12/13 05:47:56;;;;;;;5.20;1.10;;;;;;;6.00;100.00;98847.94;5033617;28;20438;-73
2023/12/13 05:50:22;;;;;;;9.27;1.30;;;;;;;5.98;100.00;98850.16;5046168;28;20553;-73
2023/12/13 05:52:47;;;;;;;5.82;1.23;;;;;;;5.97;100.00;98856.81;5039239;28;20040;-73
2023/12/13 05:55:12;;;;;;;7.68;1.40;;;;;;;6.03;100.00;98854.78;5030750;28;20040;-73
2023/12/13 05:57:38;;;;;;;9.48;1.75;;;;;;;6.02;100.00;98853.16;5006144;28;20498;-73
2023/12/13 06:00:06;;;;;;;6.60;1.25;;;;;;;6.08;100.00;98865.72;5038766;28;20037;-73
2023/12/13 06:02:34;;;;;;;4.53;1.13;;;;;;;6.08;100.00;98873.16;5024088;28;20108;-73
2023/12/13 06:05:00;;;;;;;10.27;1.50;;;;;;;6.09;100.00;98874.78;5022055;28;20044;-73
2023/12/13 06:07:26;;;;;;;6.40;1.42;;;;;;;6.11;100.00;98878.06;5038515;28;20037;-73
2023/12/13 06:09:51;;;;;;;9.70;1.33;;;;;;;6.14;100.00;98883.78;5038173;28;20041;-73
2023/12/13 06:12:17;;;;;;;7.18;1.55;;;;;;;6.23;100.00;98886.66;5038038;28;20025;-73
2023/12/13 06:14:43;;;;;;;7.45;1.23;;;;;;;6.20;100.00;98898.28;5037295;28;20037;-73
2023/12/13 06:17:09;;;;;;;6.85;1.30;;;;;;;6.23;100.00;98903.19;5022635;28;20033;-73
2023/12/13 06:19:34;;;;;;;8.13;1.70;;;;;;;6.24;100.00;98910.31;5038354;28;20456;-73
2023/12/13 06:22:00;;;;;;;5.90;1.50;;;;;;;6.29;100.00;98912.19;5039034;28;20037;-73
2023/12/13 06:24:25;;;;;;;5.63;1.40;;;;;;;6.32;100.00;98911.56;5037943;28;20029;-73
2023/12/13 06:26:51;;;;;;;4.88;1.10;;;;;;;6.31;100.00;98916.28;5037601;28;20038;-73
2023/12/13 06:29:16;;;;;;;5.55;1.45;;;;;;;6.36;100.00;98915.38;5005298;28;20382;-72
2023/12/13 06:31:43;;;;;;;8.73;1.60;;;;;;;6.40;100.00;98917.19;5038194;28;20029;-73
2023/12/13 06:34:08;;;;;;;5.25;1.38;;;;;;;6.41;100.00;98915.28;5037920;28;20037;-73
2023/12/13 06:36:33;;;;;;;5.57;1.20;;;;;;;6.42;100.00;98914.94;5037988;28;20393;-72
2023/12/13 06:39:03;;;;;;;5.10;1.48;;;;;;;6.41;100.00;98921.59;5021283;28;20056;-73
2023/12/13 06:41:31;;;;;;;6.05;1.52;;;;;;;6.42;100.00;98925.16;5054383;28;20029;-73
2023/12/13 06:43:56;;;;;;;5.20;1.45;;;;;;;6.44;100.00;98923.75;5020307;28;20096;-73
2023/12/13 06:46:22;;;;;;;4.82;1.35;;;;;;;6.43;100.00;98929.56;5019835;28;20022;-73
2023/12/13 06:48:48;;;;;;;8.43;1.30;;;;;;;6.41;100.00;98929.88;5021482;28;20537;-73
2023/12/13 06:51:14;;;;;;;6.43;1.30;;;;;;;6.41;100.00;98935.38;5044549;28;20099;-73
2023/12/13 06:53:39;;;;;;;8.35;1.50;;;;;;;6.36;100.00;98941.00;5020493;28;20048;-72
2023/12/13 06:56:05;;;;;;;10.18;1.42;;;;;;;6.38;100.00;98946.19;5048407;28;20029;-73
2023/12/13 06:58:34;;;;;;;6.28;1.58;;;;;;;6.42;100.00;98950.81;5038356;28;20064;-73
2023/12/13 07:00:59;;;;;;;5.45;1.42;;;;;;;6.46;100.00;98949.09;5036336;28;20030;-73
2023/12/13 07:03:25;;;;;;;4.47;1.30;;;;;;;6.41;100.00;98951.94;5038618;28;20029;-73
2023/12/13 07:05:51;;;;;;;4.03;1.50;;;;;;;6.45;100.00;98955.72;5038599;28;20026;-73
2023/12/13 07:08:16;;;;;;;4.05;1.50;;;;;;;6.44;100.00;98956.84;5037613;28;20021;-73
2023/12/13 07:10:42;;;;;;;3.38;1.38;;;;;;;6.43;100.00;98957.13;5038376;28;20095;-73
2023/12/13 07:13:15;;;;;;;8.82;1.58;;;;;;;6.48;100.00;98954.28;5034128;28;20041;-73
2023/12/13 07:15:40;;;;;;;4.88;1.50;;;;;;;6.51;100.00;98961.13;5020168;28;20025;-73
2023/12/13 07:18:06;;;;;;;5.80;2.05;;;;;;;6.52;100.00;98965.50;5038104;28;20041;-73
2023/12/13 07:20:31;;;;;;;5.25;1.63;;;;;;;6.48;100.00;98966.13;5020581;28;20040;-73
2023/12/13 07:22:57;;;;;;;5.53;1.70;;;;;;;6.51;100.00;98970.22;5038289;28;20029;-73
2023/12/13 07:25:23;;;;;;;6.45;1.80;;;;;;;6.54;100.00;98968.78;5036643;28;20271;-73
2023/12/13 07:27:48;;;;;;;8.40;1.77;;;;;;;6.60;100.00;98978.59;5038038;28;20486;-73
2023/12/13 07:30:14;;;;;;;6.85;1.60;;;;;;;6.55;100.00;98976.78;5038029;28;20037;-73
2023/12/13 07:32:40;;;;;;;6.72;1.80;;;;;;;6.59;100.00;98986.06;5037919;28;20112;-73
2023/12/13 07:35:06;;;;;;;7.70;2.65;;;;;;;6.59;100.00;98993.53;5036847;28;20036;-73
2023/12/13 07:37:31;;;;;;;5.53;1.88;;;;;;;6.62;100.00;98992.91;5038154;28;20038;-73
2023/12/13 07:39:57;;;;;;;6.57;2.00;;;;;;;6.63;100.00;98998.13;5036476;28;20056;-73
2023/12/13 07:42:22;;;;;;;5.30;2.10;;;;;;;6.68;100.00;99003.53;5037769;28;20033;-72
2023/12/13 07:44:48;;;;;;;7.00;1.65;;;;;;;6.66;100.00;99011.31;5037418;28;20075;-73
2023/12/13 07:47:13;;;;;;;5.55;1.75;;;;;;;6.64;100.00;99012.75;5019723;28;20064;-73
2023/12/13 07:49:39;;;;;;;7.18;2.00;;;;;;;6.66;100.00;99016.84;5025027;28;20032;-73
2023/12/13 07:52:06;;;;;;;5.57;1.75;;;;;;;6.64;100.00;99015.50;5019133;28;20030;-73
2023/12/13 07:54:32;;;;;;;8.25;1.98;;;;;;;6.65;100.00;99025.41;5025927;28;20026;-73
2023/12/13 07:56:58;;;;;;;10.35;2.08;;;;;;;6.63;100.00;99033.16;5005693;28;20034;-73
2023/12/13 07:59:23;;;;;;;7.38;2.08;;;;;;;6.63;100.00;99030.41;5010937;28;20036;-73
2023/12/13 08:01:52;;;;;;;5.05;2.10;;;;;;;6.64;100.00;99032.06;5027600;28;20037;-80
2023/12/13 08:04:17;;;;;;;7.07;2.20;;;;;;;6.67;100.00;99046.06;5015051;28;20025;-78
2023/12/13 08:06:43;;;;;;;9.05;2.67;;;;;;;6.69;100.00;99040.25;4996809;28;20041;-73
2023/12/13 08:09:09;;;;;;;8.00;3.20;;;;;;;6.67;100.00;99031.44;5058410;28;20026;-73
2023/12/13 08:11:35;;;;;;;9.55;2.50;;;;;;;6.70;100.00;99039.09;5025629;28;20040;-73
2023/12/13 08:14:01;;;;;;;7.75;3.00;;;;;;;6.71;100.00;99051.78;5026505;28;20037;-73
2023/12/13 08:16:26;;;;;;;9.15;2.90;;;;;;;6.72;100.00;99047.91;5027004;28;20398;-73
2023/12/13 08:18:54;;;;;;;10.88;2.78;;;;;;;6.77;100.00;99053.34;5033304;28;20045;-73
2023/12/13 08:21:20;;;;;;;6.97;2.88;;;;;;;6.78;100.00;99056.91;5030899;28;20064;-73
2023/12/13 08:23:46;;;;;;;9.25;3.08;;;;;;;6.81;100.00;99059.88;5031207;28;20029;-73
2023/12/13 08:26:12;;;;;;;7.07;2.95;;;;;;;6.85;100.00;99062.81;5031299;28;20033;-73
2023/12/13 08:28:38;;;;;;;8.13;2.83;;;;;;;6.83;100.00;99060.38;5036924;28;20030;-73
2023/12/13 08:31:04;;;;;;;9.98;3.22;;;;;;;6.80;100.00;99063.75;5019412;28;20046;-73
2023/12/13 08:33:29;;;;;;;8.50;3.35;;;;;;;6.80;100.00;99072.03;5035791;28;20033;-73
2023/12/13 08:35:55;;;;;;;7.65;2.92;;;;;;;6.82;100.00;99068.97;5032584;28;20030;-73
2023/12/13 08:38:22;;;;;;;19.98;3.80;;;;;;;6.88;100.00;99070.50;4986626;28;20052;-77
2023/12/13 08:40:48;;;;;;;11.30;3.10;;;;;;;6.88;100.00;99087.91;5003159;28;20454;-73
2023/12/13 08:43:13;;;;;;;15.68;3.53;;;;;;;6.92;100.00;99096.38;5036803;28;20037;-76
2023/12/13 08:45:39;;;;;;;13.23;4.20;;;;;;;6.97;100.00;99095.47;5001731;28;20036;-73
2023/12/13 08:48:04;;;;;;;14.55;4.43;;;;;;;6.99;100.00;99095.97;5038230;28;20029;-73
2023/12/13 08:50:31;;;;;;;17.52;4.10;;;;;;;6.98;100.00;99100.66;5043439;28;20017;-73
2023/12/13 08:52:56;;;;;;;13.32;3.83;;;;;;;7.01;100.00;99100.06;5035268;28;20052;-73
2023/12/13 08:55:22;;;;;;;9.43;3.63;;;;;;;7.00;100.00;99103.16;5028236;28;20029;-73
2023/12/13 08:57:47;;;;;;;11.43;3.60;;;;;;;7.03;100.00;99108.88;5036476;28;20474;-73
2023/12/13 09:00:13;;;;;;;9.00;3.83;;;;;;;7.03;100.00;99102.53;5018888;28;20037;-73
2023/12/13 09:02:39;;;;;;;10.25;4.03;;;;;;;7.08;100.00;99107.97;5036501;28;20034;-73
2023/12/13 09:05:05;;;;;;;11.30;4.30;;;;;;;7.09;100.00;99107.63;5036266;28;20029;-73
2023/12/13 09:07:31;;;;;;;9.55;3.92;;;;;;;7.13;100.00;99108.69;5036338;28;20029;-73
2023/12/13 09:09:57;;;;;;;13.35;4.00;;;;;;;7.23;100.00;99102.13;5036156;28;20037;-73
2023/12/13 09:12:22;;;;;;;8.35;4.05;;;;;;;7.30;100.00;99119.13;5032184;28;20044;-73
2023/12/13 09:14:48;;;;;;;12.00;3.90;;;;;;;7.39;100.00;99110.94;5031060;28;20029;-73
2023/12/13 09:17:14;;;;;;;8.52;3.88;;;;;;;7.49;100.00;99123.72;5031173;28;20501;-73
2023/12/13 09:19:40;;;;;;;10.98;4.00;;;;;;;7.59;100.00;99123.50;5030911;28;20034;-73
2023/12/13 09:22:13;;;;;;;9.60;4.38;;;;;;;7.70;100.00;99121.34;5036273;28;20061;-73
2023/12/13 09:24:38;;;;;;;11.60;4.32;;;;;;;7.78;100.00;99115.91;5035999;28;20033;-73
2023/12/13 09:27:04;;;;;;;9.93;4.45;;;;;;;7.88;100.00;99122.34;5036137;28;20470;-73
2023/12/13 09:29:31;;;;;;;16.23;6.90;;;;;;;7.97;100.00;99134.31;5036013;28;20450;-73
2023/12/13 09:31:58;;;;;;;7.57;4.13;;;;;;;8.09;100.00;99133.78;5034947;28;20045;-73
2023/12/13 09:34:23;;;;;;;9.60;5.30;;;;;;;8.20;100.00;99141.53;5035986;28;20112;-73
2023/12/13 09:36:49;;;;;;;9.98;4.85;;;;;;;8.32;100.00;99142.94;5018630;28;20033;-73
2023/12/13 09:39:16;;;;;;;8.65;4.30;;;;;;;8.42;100.00;99145.50;5016620;28;20030;-73
2023/12/13 09:41:59;;;;;;;12.15;5.95;;;;;;;8.60;100.00;99158.31;5034600;28;20068;-73
2023/12/13 09:44:25;;;;;;;11.27;5.18;;;;;;;8.67;100.00;99169.78;5033735;28;20030;-73
2023/12/13 09:46:52;;;;;;;8.35;4.28;;;;;;;8.75;100.00;99175.69;5018403;28;20033;-73
2023/12/13 09:49:17;;;;;;;10.70;4.03;;;;;;;8.80;100.00;99189.41;5027358;28;20030;-73
2023/12/13 09:51:44;;;;;;;11.65;4.03;;;;;;;8.83;100.00;99191.53;5027458;28;20026;-73
2023/12/13 09:54:13;;;;;;;9.93;3.90;;;;;;;8.88;100.00;99192.22;5014926;28;20086;-73
2023/12/13 09:56:39;;;;;;;9.45;3.60;;;;;;;8.89;100.00;99198.59;5043698;28;20021;-73
2023/12/13 09:59:04;;;;;;;8.57;3.35;;;;;;;8.93;100.00;99208.72;5018088;28;20040;-73
2023/12/13 10:01:30;;;;;;;5.38;2.95;;;;;;;8.98;100.00;99205.00;5001969;28;20028;-73
2023/12/13 10:03:57;;;;;;;7.70;3.38;;;;;;;9.02;100.00;99216.25;5034815;28;20033;-73
2023/12/13 10:06:23;;;;;;;10.15;3.70;;;;;;;9.03;100.00;99213.19;5034696;28;20032;-73
2023/12/13 10:08:56;;;;;;;7.32;2.65;;;;;;;9.07;100.00;99228.03;5017258;28;20411;-73
2023/12/13 10:11:22;;;;;;;6.90;2.90;;;;;;;9.06;100.00;99229.19;4999824;28;20057;-73
2023/12/13 10:13:47;;;;;;;9.00;3.28;;;;;;;9.08;100.00;99235.22;4998139;28;20390;-73
2023/12/13 10:16:14;;;;;;;10.55;2.47;;;;;;;9.11;100.00;99234.59;5017841;28;20844;-73
2023/12/13 10:18:42;;;;;;;8.43;2.78;;;;;;;9.13;100.00;99251.69;5013189;28;20042;-74
2023/12/13 10:21:09;;;;;;;6.32;2.67;;;;;;;9.11;100.00;99250.38;5033950;28;20064;-73
2023/12/13 10:23:35;;;;;;;7.95;3.17;;;;;;;9.11;100.00;99259.53;5018305;28;20061;-73
2023/12/13 10:26:08;;;;;;;13.18;4.25;;;;;;;9.12;100.00;99249.25;5013548;28;20033;-74
2023/12/13 10:28:35;;;;;;;12.07;3.58;;;;;;;9.12;100.00;99254.78;5017111;28;20048;-73
2023/12/13 10:31:00;;;;;;;12.07;3.22;;;;;;;9.10;100.00;99263.41;5021797;28;20037;-73
2023/12/13 10:33:26;;;;;;;9.38;3.70;;;;;;;9.09;100.00;99272.88;5028574;28;20106;-73
2023/12/13 10:35:53;;;;;;;7.43;3.38;;;;;;;9.10;100.00;99266.19;5039939;28;20060;-73
2023/12/13 10:38:19;;;;;;;10.55;3.58;;;;;;;9.06;100.00;99273.50;5039424;28;20045;-73
2023/12/13 10:40:44;;;;;;;8.73;3.35;;;;;;;9.09;100.00;99280.34;5021215;28;20036;-73
2023/12/13 10:43:11;;;;;;;9.27;3.20;;;;;;;9.09;100.00;99283.13;5037824;28;20030;-73
2023/12/13 10:45:51;;;;;;;6.32;2.60;;;;;;;9.12;100.00;99279.72;5001187;28;20034;-73
2023/12/13 10:48:16;;;;;;;11.38;3.33;;;;;;;9.13;100.00;99284.13;5037927;28;20025;-73
2023/12/13 10:50:44;;;;;;;10.23;2.90;;;;;;;9.17;100.00;99296.22;5029479;28;20025;-73
2023/12/13 10:53:11;;;;;;;5.50;2.65;;;;;;;9.20;100.00;99297.56;5038903;28;20030;-73
2023/12/13 10:55:36;;;;;;;11.85;4.07;;;;;;;9.25;100.00;99294.63;5014042;28;20056;-74
2023/12/13 10:58:02;;;;;;;6.55;3.28;;;;;;;9.23;100.00;99294.16;5004764;28;20028;-73
2023/12/13 11:00:32;;;;;;;8.52;3.10;;;;;;;9.25;100.00;99292.69;5001941;28;20076;-73
2023/12/13 11:03:09;;;;;;;11.18;4.10;;;;;;;9.27;100.00;99304.25;5020187;28;20405;-73
2023/12/13 11:05:35;;;;;;;8.93;3.28;;;;;;;9.28;100.00;99302.34;5037009;28;20033;-73
2023/12/13 11:08:00;;;;;;;13.95;5.18;;;;;;;9.28;100.00;99308.69;5036697;28;20030;-73
2023/12/13 11:10:26;;;;;;;11.35;3.80;;;;;;;9.30;100.00;99316.66;5031874;28;20033;-73
2023/12/13 11:12:52;;;;;;;10.23;3.30;;;;;;;9.27;100.00;99317.31;5006180;28;20045;-73
2023/12/13 11:15:18;;;;;;;12.45;3.90;;;;;;;9.26;100.00;99308.19;5014682;28;20033;-73
2023/12/13 11:17:59;;;;;;;9.07;3.53;;;;;;;9.27;100.00;99320.06;5016658;28;20048;-73
2023/12/13 11:20:26;;;;;;;11.70;5.03;;;;;;;9.27;100.00;99318.13;5060131;28;20033;-73
2023/12/13 11:22:54;;;;;;;9.57;3.88;;;;;;;9.27;100.00;99318.13;5023703;28;20065;-73
2023/12/13 11:25:21;;;;;;;13.98;5.32;;;;;;;9.25;100.00;99325.09;5016220;28;20026;-73